Ridgeland, Mississippi
Current Conditions -  °F | °C
As of 6:53 AM on Sunday 23 Nov 2014 (Local Time) from KHKS Reporting Station
Light Rain Light Rain  
Wind Chill: 61°   Ceiling: 600
Heat Index: 61°   Visibility: 7mi
Dew Point: 59°   Wind: 10mph
Humidity: 93%   Direction: 130°SE
Pressure: 29.73"   Gusts: NA
Location:  32.43°N, 90.14°W
Report Text: KHKS 231253Z AUTO 13009KT 7SM -RA OVC006 16/15 A2973 RMK AO2 SLP062 P0001 T01610150
Loading
Personal Weather Stations






























Interactive Weather Map New forecast layout! Learn more

10-Day Weather Forecast

Advertisements
Track Severe Weather on mobile